sensor_id;sensor_type;location;lat;lon;timestamp;P1;durP1;ratioP1;P2;durP2;ratioP2
11394;SDS011;5753;54.402;10.220;2022-12-29T00:02:15;4.38;;;2.85;;
11394;SDS011;5753;54.402;10.220;2022-12-29T00:04:41;6.13;;;4.28;;
11394;SDS011;5753;54.402;10.220;2022-12-29T00:07:07;2.97;;;2.47;;
11394;SDS011;5753;54.402;10.220;2022-12-29T00:09:33;3.83;;;2.92;;
11394;SDS011;5753;54.402;10.220;2022-12-29T00:12:00;3.38;;;3.08;;
11394;SDS011;5753;54.402;10.220;2022-12-29T00:14:28;7.03;;;4.15;;
11394;SDS011;5753;54.402;10.220;2022-12-29T00:17:13;5.93;;;4.93;;
11394;SDS011;5753;54.402;10.220;2022-12-29T00:19:39;5.20;;;4.35;;
11394;SDS011;5753;54.402;10.220;2022-12-29T00:22:24;7.07;;;4.13;;
11394;SDS011;5753;54.402;10.220;2022-12-29T00:25:10;4.05;;;3.45;;
11394;SDS011;5753;54.402;10.220;2022-12-29T00:27:56;8.52;;;5.35;;
11394;SDS011;5753;54.402;10.220;2022-12-29T00:30:41;12.20;;;5.40;;
11394;SDS011;5753;54.402;10.220;2022-12-29T00:33:26;5.47;;;4.15;;
11394;SDS011;5753;54.402;10.220;2022-12-29T00:36:20;5.30;;;3.58;;
11394;SDS011;5753;54.402;10.220;2022-12-29T00:38:57;7.07;;;4.65;;
11394;SDS011;5753;54.402;10.220;2022-12-29T00:41:50;5.78;;;4.47;;
11394;SDS011;5753;54.402;10.220;2022-12-29T00:44:35;7.50;;;5.70;;
11394;SDS011;5753;54.402;10.220;2022-12-29T00:47:01;6.32;;;5.72;;
11394;SDS011;5753;54.402;10.220;2022-12-29T00:49:29;8.45;;;6.25;;
11394;SDS011;5753;54.402;10.220;2022-12-29T00:51:59;7.03;;;5.93;;
11394;SDS011;5753;54.402;10.220;2022-12-29T00:54:31;6.63;;;5.07;;
11394;SDS011;5753;54.402;10.220;2022-12-29T00:56:58;6.85;;;5.43;;
11394;SDS011;5753;54.402;10.220;2022-12-29T00:59:25;6.05;;;5.00;;
11394;SDS011;5753;54.402;10.220;2022-12-29T01:01:52;7.80;;;6.18;;
11394;SDS011;5753;54.402;10.220;2022-12-29T01:04:19;8.48;;;6.40;;
11394;SDS011;5753;54.402;10.220;2022-12-29T01:06:47;5.55;;;4.80;;
11394;SDS011;5753;54.402;10.220;2022-12-29T01:09:13;7.82;;;7.05;;
11394;SDS011;5753;54.402;10.220;2022-12-29T01:11:58;10.15;;;7.50;;
11394;SDS011;5753;54.402;10.220;2022-12-29T01:14:24;6.07;;;5.53;;
11394;SDS011;5753;54.402;10.220;2022-12-29T01:16:51;7.38;;;5.47;;
11394;SDS011;5753;54.402;10.220;2022-12-29T01:19:17;6.93;;;5.63;;
11394;SDS011;5753;54.402;10.220;2022-12-29T01:21:45;6.78;;;6.10;;
11394;SDS011;5753;54.402;10.220;2022-12-29T01:24:11;11.63;;;6.68;;
11394;SDS011;5753;54.402;10.220;2022-12-29T01:26:38;8.00;;;5.70;;
11394;SDS011;5753;54.402;10.220;2022-12-29T01:29:04;7.85;;;6.93;;
11394;SDS011;5753;54.402;10.220;2022-12-29T01:31:30;7.63;;;6.82;;
11394;SDS011;5753;54.402;10.220;2022-12-29T01:33:56;7.45;;;6.75;;
11394;SDS011;5753;54.402;10.220;2022-12-29T01:36:23;7.47;;;6.80;;
11394;SDS011;5753;54.402;10.220;2022-12-29T01:38:50;7.90;;;5.63;;
11394;SDS011;5753;54.402;10.220;2022-12-29T01:41:16;10.48;;;8.73;;
11394;SDS011;5753;54.402;10.220;2022-12-29T01:43:43;9.38;;;8.38;;
11394;SDS011;5753;54.402;10.220;2022-12-29T01:48:48;10.82;;;7.40;;
11394;SDS011;5753;54.402;10.220;2022-12-29T01:51:23;9.65;;;8.07;;
11394;SDS011;5753;54.402;10.220;2022-12-29T01:53:51;11.77;;;8.00;;
11394;SDS011;5753;54.402;10.220;2022-12-29T01:56:19;7.85;;;6.97;;
11394;SDS011;5753;54.402;10.220;2022-12-29T01:58:47;8.32;;;7.07;;
11394;SDS011;5753;54.402;10.220;2022-12-29T02:01:20;8.82;;;8.05;;
11394;SDS011;5753;54.402;10.220;2022-12-29T02:03:47;12.63;;;8.38;;
11394;SDS011;5753;54.402;10.220;2022-12-29T02:06:17;8.30;;;7.45;;
11394;SDS011;5753;54.402;10.220;2022-12-29T02:08:49;9.40;;;7.00;;
11394;SDS011;5753;54.402;10.220;2022-12-29T02:11:18;8.43;;;6.85;;
11394;SDS011;5753;54.402;10.220;2022-12-29T02:13:44;8.73;;;6.88;;
11394;SDS011;5753;54.402;10.220;2022-12-29T02:24:37;9.25;;;6.85;;
11394;SDS011;5753;54.402;10.220;2022-12-29T02:32:44;8.30;;;7.20;;
11394;SDS011;5753;54.402;10.220;2022-12-29T02:40:48;9.48;;;5.75;;
11394;SDS011;5753;54.402;10.220;2022-12-29T02:48:54;6.82;;;6.18;;
11394;SDS011;5753;54.402;10.220;2022-12-29T02:51:45;7.18;;;6.20;;
11394;SDS011;5753;54.402;10.220;2022-12-29T02:54:19;8.70;;;7.82;;
11394;SDS011;5753;54.402;10.220;2022-12-29T02:57:08;8.88;;;5.65;;
11394;SDS011;5753;54.402;10.220;2022-12-29T02:59:34;9.20;;;6.30;;
11394;SDS011;5753;54.402;10.220;2022-12-29T03:02:12;9.85;;;8.85;;
11394;SDS011;5753;54.402;10.220;2022-12-29T03:13:26;13.40;;;7.45;;
11394;SDS011;5753;54.402;10.220;2022-12-29T03:16:29;11.93;;;6.72;;
11394;SDS011;5753;54.402;10.220;2022-12-29T03:19:16;7.93;;;6.28;;
11394;SDS011;5753;54.402;10.220;2022-12-29T03:21:59;8.82;;;5.78;;
11394;SDS011;5753;54.402;10.220;2022-12-29T03:24:48;7.15;;;6.03;;
11394;SDS011;5753;54.402;10.220;2022-12-29T03:27:24;9.18;;;7.45;;
11394;SDS011;5753;54.402;10.220;2022-12-29T03:29:55;8.45;;;7.57;;
11394;SDS011;5753;54.402;10.220;2022-12-29T03:32:27;7.55;;;6.53;;
11394;SDS011;5753;54.402;10.220;2022-12-29T03:35:04;8.45;;;6.55;;
11394;SDS011;5753;54.402;10.220;2022-12-29T03:37:35;6.75;;;6.07;;
11394;SDS011;5753;54.402;10.220;2022-12-29T03:40:07;8.52;;;7.70;;
11394;SDS011;5753;54.402;10.220;2022-12-29T03:42:35;7.05;;;5.45;;
11394;SDS011;5753;54.402;10.220;2022-12-29T03:45:03;7.88;;;6.05;;
11394;SDS011;5753;54.402;10.220;2022-12-29T03:47:31;6.10;;;5.47;;
11394;SDS011;5753;54.402;10.220;2022-12-29T03:49:57;8.85;;;7.15;;
11394;SDS011;5753;54.402;10.220;2022-12-29T03:52:23;6.68;;;5.60;;
11394;SDS011;5753;54.402;10.220;2022-12-29T03:54:49;7.90;;;6.85;;
11394;SDS011;5753;54.402;10.220;2022-12-29T03:57:15;7.82;;;6.07;;
11394;SDS011;5753;54.402;10.220;2022-12-29T03:59:41;5.95;;;5.40;;
11394;SDS011;5753;54.402;10.220;2022-12-29T04:02:07;7.13;;;6.07;;
11394;SDS011;5753;54.402;10.220;2022-12-29T04:04:33;5.55;;;5.10;;
11394;SDS011;5753;54.402;10.220;2022-12-29T04:06:59;8.45;;;6.68;;
11394;SDS011;5753;54.402;10.220;2022-12-29T04:09:25;6.15;;;5.32;;
11394;SDS011;5753;54.402;10.220;2022-12-29T04:11:51;6.90;;;5.57;;
11394;SDS011;5753;54.402;10.220;2022-12-29T04:14:17;6.78;;;5.15;;
11394;SDS011;5753;54.402;10.220;2022-12-29T04:16:43;7.45;;;5.10;;
11394;SDS011;5753;54.402;10.220;2022-12-29T04:19:09;7.97;;;7.20;;
11394;SDS011;5753;54.402;10.220;2022-12-29T04:21:36;8.02;;;7.25;;
11394;SDS011;5753;54.402;10.220;2022-12-29T04:24:02;8.70;;;5.68;;
11394;SDS011;5753;54.402;10.220;2022-12-29T04:26:31;5.65;;;4.55;;
11394;SDS011;5753;54.402;10.220;2022-12-29T04:28:57;7.85;;;6.28;;
11394;SDS011;5753;54.402;10.220;2022-12-29T04:31:23;8.45;;;7.53;;
11394;SDS011;5753;54.402;10.220;2022-12-29T04:33:49;5.15;;;4.65;;
11394;SDS011;5753;54.402;10.220;2022-12-29T04:36:15;8.05;;;5.97;;
11394;SDS011;5753;54.402;10.220;2022-12-29T04:38:41;6.78;;;6.07;;
11394;SDS011;5753;54.402;10.220;2022-12-29T04:41:07;11.90;;;6.38;;
11394;SDS011;5753;54.402;10.220;2022-12-29T04:43:33;9.23;;;5.65;;
11394;SDS011;5753;54.402;10.220;2022-12-29T04:45:59;6.05;;;5.10;;
11394;SDS011;5753;54.402;10.220;2022-12-29T04:48:26;6.65;;;5.97;;
11394;SDS011;5753;54.402;10.220;2022-12-29T04:50:52;6.47;;;5.20;;
11394;SDS011;5753;54.402;10.220;2022-12-29T04:53:18;8.82;;;6.70;;
11394;SDS011;5753;54.402;10.220;2022-12-29T04:55:44;6.28;;;5.75;;
11394;SDS011;5753;54.402;10.220;2022-12-29T04:58:13;8.65;;;7.85;;
11394;SDS011;5753;54.402;10.220;2022-12-29T05:00:39;6.43;;;5.25;;
11394;SDS011;5753;54.402;10.220;2022-12-29T05:03:05;6.28;;;5.00;;
11394;SDS011;5753;54.402;10.220;2022-12-29T05:05:31;5.53;;;4.72;;
11394;SDS011;5753;54.402;10.220;2022-12-29T05:07:57;5.90;;;5.18;;
11394;SDS011;5753;54.402;10.220;2022-12-29T05:10:23;7.53;;;6.50;;
11394;SDS011;5753;54.402;10.220;2022-12-29T05:12:49;5.68;;;5.15;;
11394;SDS011;5753;54.402;10.220;2022-12-29T05:15:15;6.72;;;5.15;;
11394;SDS011;5753;54.402;10.220;2022-12-29T05:17:42;5.25;;;4.75;;
11394;SDS011;5753;54.402;10.220;2022-12-29T05:20:08;5.78;;;4.38;;
11394;SDS011;5753;54.402;10.220;2022-12-29T05:22:34;4.88;;;3.97;;
11394;SDS011;5753;54.402;10.220;2022-12-29T05:25:01;4.55;;;4.03;;
11394;SDS011;5753;54.402;10.220;2022-12-29T05:27:27;5.80;;;5.13;;
11394;SDS011;5753;54.402;10.220;2022-12-29T05:29:53;6.03;;;4.47;;
11394;SDS011;5753;54.402;10.220;2022-12-29T05:32:19;6.22;;;5.07;;
11394;SDS011;5753;54.402;10.220;2022-12-29T05:34:46;7.57;;;5.68;;
11394;SDS011;5753;54.402;10.220;2022-12-29T05:37:12;5.40;;;4.55;;
11394;SDS011;5753;54.402;10.220;2022-12-29T05:39:38;4.60;;;4.15;;
11394;SDS011;5753;54.402;10.220;2022-12-29T05:42:04;6.28;;;4.93;;
11394;SDS011;5753;54.402;10.220;2022-12-29T05:44:30;5.63;;;5.13;;
11394;SDS011;5753;54.402;10.220;2022-12-29T05:46:56;5.57;;;5.00;;
11394;SDS011;5753;54.402;10.220;2022-12-29T05:49:22;5.63;;;5.03;;
11394;SDS011;5753;54.402;10.220;2022-12-29T05:51:49;4.90;;;4.25;;
11394;SDS011;5753;54.402;10.220;2022-12-29T05:54:15;6.85;;;4.07;;
11394;SDS011;5753;54.402;10.220;2022-12-29T05:56:41;6.03;;;4.75;;
11394;SDS011;5753;54.402;10.220;2022-12-29T05:59:07;3.63;;;3.33;;
11394;SDS011;5753;54.402;10.220;2022-12-29T06:01:33;6.95;;;6.30;;
11394;SDS011;5753;54.402;10.220;2022-12-29T06:03:59;4.13;;;3.13;;
11394;SDS011;5753;54.402;10.220;2022-12-29T06:06:25;3.80;;;2.75;;
11394;SDS011;5753;54.402;10.220;2022-12-29T06:08:51;3.33;;;2.75;;
11394;SDS011;5753;54.402;10.220;2022-12-29T06:11:17;4.65;;;3.90;;
11394;SDS011;5753;54.402;10.220;2022-12-29T06:13:43;4.57;;;4.20;;
11394;SDS011;5753;54.402;10.220;2022-12-29T06:16:10;3.22;;;2.63;;
11394;SDS011;5753;54.402;10.220;2022-12-29T06:18:36;3.78;;;2.67;;
11394;SDS011;5753;54.402;10.220;2022-12-29T06:21:02;3.00;;;2.70;;
11394;SDS011;5753;54.402;10.220;2022-12-29T06:23:29;3.10;;;2.25;;
11394;SDS011;5753;54.402;10.220;2022-12-29T06:25:56;3.08;;;2.75;;
11394;SDS011;5753;54.402;10.220;2022-12-29T06:28:22;3.47;;;2.70;;
11394;SDS011;5753;54.402;10.220;2022-12-29T06:30:48;4.20;;;3.13;;
11394;SDS011;5753;54.402;10.220;2022-12-29T06:33:15;2.50;;;2.10;;
11394;SDS011;5753;54.402;10.220;2022-12-29T06:35:41;4.82;;;1.83;;
11394;SDS011;5753;54.402;10.220;2022-12-29T06:38:08;2.35;;;2.15;;
11394;SDS011;5753;54.402;10.220;2022-12-29T06:40:34;2.53;;;2.33;;
11394;SDS011;5753;54.402;10.220;2022-12-29T06:43:00;3.63;;;2.40;;
11394;SDS011;5753;54.402;10.220;2022-12-29T06:45:26;2.03;;;1.92;;
11394;SDS011;5753;54.402;10.220;2022-12-29T06:47:52;10.73;;;3.42;;
11394;SDS011;5753;54.402;10.220;2022-12-29T06:50:18;2.92;;;2.40;;
11394;SDS011;5753;54.402;10.220;2022-12-29T06:52:44;3.03;;;2.72;;
11394;SDS011;5753;54.402;10.220;2022-12-29T06:55:10;3.95;;;2.75;;
11394;SDS011;5753;54.402;10.220;2022-12-29T06:57:36;2.70;;;2.47;;
11394;SDS011;5753;54.402;10.220;2022-12-29T07:00:03;2.97;;;2.67;;
11394;SDS011;5753;54.402;10.220;2022-12-29T07:02:29;4.10;;;2.60;;
11394;SDS011;5753;54.402;10.220;2022-12-29T07:04:56;3.22;;;2.92;;
11394;SDS011;5753;54.402;10.220;2022-12-29T07:07:22;3.13;;;2.83;;
11394;SDS011;5753;54.402;10.220;2022-12-29T07:09:48;2.50;;;2.30;;
11394;SDS011;5753;54.402;10.220;2022-12-29T07:12:14;2.53;;;2.00;;
11394;SDS011;5753;54.402;10.220;2022-12-29T07:14:40;2.33;;;2.08;;
11394;SDS011;5753;54.402;10.220;2022-12-29T07:17:06;2.53;;;2.33;;
11394;SDS011;5753;54.402;10.220;2022-12-29T07:19:32;3.00;;;2.70;;
11394;SDS011;5753;54.402;10.220;2022-12-29T07:21:59;3.53;;;2.78;;
11394;SDS011;5753;54.402;10.220;2022-12-29T07:24:25;3.90;;;3.42;;
11394;SDS011;5753;54.402;10.220;2022-12-29T07:26:51;3.05;;;2.35;;
11394;SDS011;5753;54.402;10.220;2022-12-29T07:29:17;2.78;;;2.33;;
11394;SDS011;5753;54.402;10.220;2022-12-29T07:31:43;2.22;;;1.75;;
11394;SDS011;5753;54.402;10.220;2022-12-29T07:34:09;3.38;;;2.35;;
11394;SDS011;5753;54.402;10.220;2022-12-29T07:36:35;2.50;;;2.30;;
11394;SDS011;5753;54.402;10.220;2022-12-29T07:39:02;2.67;;;2.47;;
11394;SDS011;5753;54.402;10.220;2022-12-29T07:41:28;4.55;;;4.10;;
11394;SDS011;5753;54.402;10.220;2022-12-29T07:43:54;1.77;;;1.63;;
11394;SDS011;5753;54.402;10.220;2022-12-29T07:46:20;1.70;;;1.60;;
11394;SDS011;5753;54.402;10.220;2022-12-29T07:48:46;4.28;;;1.83;;
11394;SDS011;5753;54.402;10.220;2022-12-29T07:51:12;3.40;;;2.33;;
11394;SDS011;5753;54.402;10.220;2022-12-29T07:53:38;2.45;;;2.25;;
11394;SDS011;5753;54.402;10.220;2022-12-29T07:56:04;3.22;;;2.15;;
11394;SDS011;5753;54.402;10.220;2022-12-29T07:58:31;2.22;;;1.65;;
11394;SDS011;5753;54.402;10.220;2022-12-29T08:00:57;2.50;;;1.58;;
11394;SDS011;5753;54.402;10.220;2022-12-29T08:03:23;4.20;;;2.28;;
11394;SDS011;5753;54.402;10.220;2022-12-29T08:05:50;1.77;;;1.67;;
11394;SDS011;5753;54.402;10.220;2022-12-29T08:08:16;2.28;;;1.45;;
11394;SDS011;5753;54.402;10.220;2022-12-29T08:10:43;3.55;;;1.48;;
11394;SDS011;5753;54.402;10.220;2022-12-29T08:13:09;3.17;;;2.38;;
11394;SDS011;5753;54.402;10.220;2022-12-29T08:15:37;3.88;;;1.45;;
11394;SDS011;5753;54.402;10.220;2022-12-29T08:18:03;4.65;;;2.55;;
11394;SDS011;5753;54.402;10.220;2022-12-29T08:20:29;4.53;;;1.83;;
11394;SDS011;5753;54.402;10.220;2022-12-29T08:22:56;3.92;;;1.48;;
11394;SDS011;5753;54.402;10.220;2022-12-29T08:25:22;5.72;;;2.65;;
11394;SDS011;5753;54.402;10.220;2022-12-29T08:27:48;1.45;;;1.35;;
11394;SDS011;5753;54.402;10.220;2022-12-29T08:30:14;4.88;;;0.95;;
11394;SDS011;5753;54.402;10.220;2022-12-29T08:32:41;9.23;;;2.45;;
11394;SDS011;5753;54.402;10.220;2022-12-29T08:35:07;1.85;;;1.15;;
11394;SDS011;5753;54.402;10.220;2022-12-29T08:37:34;1.60;;;0.68;;
11394;SDS011;5753;54.402;10.220;2022-12-29T08:40:00;3.15;;;2.40;;
11394;SDS011;5753;54.402;10.220;2022-12-29T08:42:28;2.97;;;1.08;;
11394;SDS011;5753;54.402;10.220;2022-12-29T08:44:56;3.15;;;0.75;;
11394;SDS011;5753;54.402;10.220;2022-12-29T08:47:23;2.40;;;1.60;;
11394;SDS011;5753;54.402;10.220;2022-12-29T08:49:50;7.50;;;0.93;;
11394;SDS011;5753;54.402;10.220;2022-12-29T08:52:16;1.08;;;0.63;;
11394;SDS011;5753;54.402;10.220;2022-12-29T08:54:43;1.98;;;1.30;;
11394;SDS011;5753;54.402;10.220;2022-12-29T08:57:09;4.57;;;1.30;;
11394;SDS011;5753;54.402;10.220;2022-12-29T08:59:35;5.20;;;1.60;;
11394;SDS011;5753;54.402;10.220;2022-12-29T09:02:01;8.35;;;2.53;;
11394;SDS011;5753;54.402;10.220;2022-12-29T09:04:27;3.00;;;2.10;;
11394;SDS011;5753;54.402;10.220;2022-12-29T09:06:54;3.50;;;1.30;;
11394;SDS011;5753;54.402;10.220;2022-12-29T09:09:20;2.53;;;1.08;;
11394;SDS011;5753;54.402;10.220;2022-12-29T09:11:46;2.33;;;2.13;;
11394;SDS011;5753;54.402;10.220;2022-12-29T09:14:12;7.25;;;1.67;;
11394;SDS011;5753;54.402;10.220;2022-12-29T09:16:39;4.07;;;2.33;;
11394;SDS011;5753;54.402;10.220;2022-12-29T09:19:24;2.10;;;1.27;;
11394;SDS011;5753;54.402;10.220;2022-12-29T09:21:50;7.53;;;2.95;;
11394;SDS011;5753;54.402;10.220;2022-12-29T09:24:16;2.70;;;1.80;;
11394;SDS011;5753;54.402;10.220;2022-12-29T09:26:42;5.75;;;1.35;;
11394;SDS011;5753;54.402;10.220;2022-12-29T09:29:08;11.80;;;2.00;;
11394;SDS011;5753;54.402;10.220;2022-12-29T09:31:34;4.93;;;1.33;;
11394;SDS011;5753;54.402;10.220;2022-12-29T09:34:00;2.05;;;1.15;;
11394;SDS011;5753;54.402;10.220;2022-12-29T09:36:26;3.67;;;2.03;;
11394;SDS011;5753;54.402;10.220;2022-12-29T09:38:53;5.35;;;2.05;;
11394;SDS011;5753;54.402;10.220;2022-12-29T09:41:55;5.50;;;2.85;;
11394;SDS011;5753;54.402;10.220;2022-12-29T09:44:23;5.60;;;1.63;;
11394;SDS011;5753;54.402;10.220;2022-12-29T09:47:03;3.80;;;1.92;;
11394;SDS011;5753;54.402;10.220;2022-12-29T09:49:41;2.85;;;1.80;;
11394;SDS011;5753;54.402;10.220;2022-12-29T09:52:15;3.60;;;1.00;;
11394;SDS011;5753;54.402;10.220;2022-12-29T09:55:00;7.72;;;2.50;;
11394;SDS011;5753;54.402;10.220;2022-12-29T09:57:36;7.95;;;1.73;;
11394;SDS011;5753;54.402;10.220;2022-12-29T10:00:33;1.58;;;1.30;;
11394;SDS011;5753;54.402;10.220;2022-12-29T10:03:14;8.00;;;2.58;;
11394;SDS011;5753;54.402;10.220;2022-12-29T10:16:33;10.02;;;2.22;;
11394;SDS011;5753;54.402;10.220;2022-12-29T10:19:16;17.80;;;2.65;;
11394;SDS011;5753;54.402;10.220;2022-12-29T10:22:07;2.25;;;1.67;;
11394;SDS011;5753;54.402;10.220;2022-12-29T10:24:35;2.92;;;2.17;;
11394;SDS011;5753;54.402;10.220;2022-12-29T10:27:04;6.28;;;1.92;;
11394;SDS011;5753;54.402;10.220;2022-12-29T10:29:37;4.95;;;2.03;;
11394;SDS011;5753;54.402;10.220;2022-12-29T10:32:17;5.20;;;3.03;;
11394;SDS011;5753;54.402;10.220;2022-12-29T10:35:12;2.63;;;1.48;;
11394;SDS011;5753;54.402;10.220;2022-12-29T10:43:30;6.22;;;2.55;;
11394;SDS011;5753;54.402;10.220;2022-12-29T10:46:03;13.65;;;2.28;;
11394;SDS011;5753;54.402;10.220;2022-12-29T10:48:35;5.70;;;2.05;;
11394;SDS011;5753;54.402;10.220;2022-12-29T10:51:02;20.85;;;2.45;;
11394;SDS011;5753;54.402;10.220;2022-12-29T10:53:34;4.07;;;2.85;;
11394;SDS011;5753;54.402;10.220;2022-12-29T10:56:17;2.67;;;1.70;;
11394;SDS011;5753;54.402;10.220;2022-12-29T11:01:19;3.15;;;1.40;;
11394;SDS011;5753;54.402;10.220;2022-12-29T11:03:48;7.20;;;1.85;;
11394;SDS011;5753;54.402;10.220;2022-12-29T11:06:28;5.43;;;2.25;;
11394;SDS011;5753;54.402;10.220;2022-12-29T11:09:12;3.35;;;1.98;;
11394;SDS011;5753;54.402;10.220;2022-12-29T11:11:47;5.65;;;1.70;;
11394;SDS011;5753;54.402;10.220;2022-12-29T11:14:14;6.00;;;1.88;;
11394;SDS011;5753;54.402;10.220;2022-12-29T11:16:56;11.30;;;2.38;;
11394;SDS011;5753;54.402;10.220;2022-12-29T11:19:24;3.55;;;2.30;;
11394;SDS011;5753;54.402;10.220;2022-12-29T11:21:53;2.53;;;1.75;;
11394;SDS011;5753;54.402;10.220;2022-12-29T11:26:48;15.02;;;2.60;;
11394;SDS011;5753;54.402;10.220;2022-12-29T11:29:37;3.50;;;1.83;;
11394;SDS011;5753;54.402;10.220;2022-12-29T11:32:38;8.65;;;1.60;;
11394;SDS011;5753;54.402;10.220;2022-12-29T11:34:57;6.82;;;1.70;;
11394;SDS011;5753;54.402;10.220;2022-12-29T11:40:17;5.28;;;2.63;;
11394;SDS011;5753;54.402;10.220;2022-12-29T11:42:52;4.07;;;1.33;;
11394;SDS011;5753;54.402;10.220;2022-12-29T11:45:25;2.88;;;1.77;;
11394;SDS011;5753;54.402;10.220;2022-12-29T11:50:30;6.20;;;1.42;;
11394;SDS011;5753;54.402;10.220;2022-12-29T11:53:03;15.13;;;2.63;;
11394;SDS011;5753;54.402;10.220;2022-12-29T11:55:39;3.25;;;1.13;;
11394;SDS011;5753;54.402;10.220;2022-12-29T11:58:05;12.05;;;3.35;;
11394;SDS011;5753;54.402;10.220;2022-12-29T12:00:40;3.33;;;2.35;;
11394;SDS011;5753;54.402;10.220;2022-12-29T12:03:19;7.32;;;2.03;;
11394;SDS011;5753;54.402;10.220;2022-12-29T12:06:08;11.43;;;2.05;;
11394;SDS011;5753;54.402;10.220;2022-12-29T12:08:56;8.13;;;2.55;;
11394;SDS011;5753;54.402;10.220;2022-12-29T12:11:29;16.95;;;3.25;;
11394;SDS011;5753;54.402;10.220;2022-12-29T12:14:11;6.97;;;2.15;;
11394;SDS011;5753;54.402;10.220;2022-12-29T12:16:55;4.75;;;1.48;;
11394;SDS011;5753;54.402;10.220;2022-12-29T12:19:47;9.32;;;3.22;;
11394;SDS011;5753;54.402;10.220;2022-12-29T12:22:31;6.30;;;2.38;;
11394;SDS011;5753;54.402;10.220;2022-12-29T12:25:11;2.85;;;2.55;;
11394;SDS011;5753;54.402;10.220;2022-12-29T12:27:55;4.85;;;2.50;;
11394;SDS011;5753;54.402;10.220;2022-12-29T12:30:30;4.22;;;2.10;;
11394;SDS011;5753;54.402;10.220;2022-12-29T12:44:01;5.53;;;2.30;;
11394;SDS011;5753;54.402;10.220;2022-12-29T12:49:17;13.45;;;4.00;;
11394;SDS011;5753;54.402;10.220;2022-12-29T12:57:35;7.60;;;2.55;;
11394;SDS011;5753;54.402;10.220;2022-12-29T13:00:13;7.22;;;2.45;;
11394;SDS011;5753;54.402;10.220;2022-12-29T13:03:05;12.07;;;3.38;;
11394;SDS011;5753;54.402;10.220;2022-12-29T13:16:47;8.30;;;2.80;;
11394;SDS011;5753;54.402;10.220;2022-12-29T13:22:58;1.58;;;1.48;;
11394;SDS011;5753;54.402;10.220;2022-12-29T13:25:37;4.22;;;2.38;;
11394;SDS011;5753;54.402;10.220;2022-12-29T13:28:20;5.78;;;1.95;;
11394;SDS011;5753;54.402;10.220;2022-12-29T13:31:08;6.28;;;2.60;;
11394;SDS011;5753;54.402;10.220;2022-12-29T13:34:09;3.75;;;2.60;;
11394;SDS011;5753;54.402;10.220;2022-12-29T13:36:45;7.75;;;2.53;;
11394;SDS011;5753;54.402;10.220;2022-12-29T13:39:25;5.30;;;1.60;;
11394;SDS011;5753;54.402;10.220;2022-12-29T13:41:58;13.23;;;3.67;;
11394;SDS011;5753;54.402;10.220;2022-12-29T13:44:28;4.10;;;1.25;;
11394;SDS011;5753;54.402;10.220;2022-12-29T13:47:01;3.13;;;1.30;;
11394;SDS011;5753;54.402;10.220;2022-12-29T13:49:36;1.75;;;0.95;;
11394;SDS011;5753;54.402;10.220;2022-12-29T13:55:02;3.05;;;2.15;;
11394;SDS011;5753;54.402;10.220;2022-12-29T13:57:47;6.70;;;2.03;;
11394;SDS011;5753;54.402;10.220;2022-12-29T14:00:20;5.95;;;2.78;;
11394;SDS011;5753;54.402;10.220;2022-12-29T14:05:45;6.53;;;2.30;;
11394;SDS011;5753;54.402;10.220;2022-12-29T14:08:28;6.65;;;2.60;;
11394;SDS011;5753;54.402;10.220;2022-12-29T14:10:58;5.07;;;2.83;;
11394;SDS011;5753;54.402;10.220;2022-12-29T14:13:39;12.25;;;2.67;;
11394;SDS011;5753;54.402;10.220;2022-12-29T14:16:10;16.02;;;4.13;;
11394;SDS011;5753;54.402;10.220;2022-12-29T14:18:51;5.88;;;2.10;;
11394;SDS011;5753;54.402;10.220;2022-12-29T14:21:20;10.18;;;2.67;;
11394;SDS011;5753;54.402;10.220;2022-12-29T14:23:52;8.00;;;2.60;;
11394;SDS011;5753;54.402;10.220;2022-12-29T14:28:54;8.38;;;3.35;;
11394;SDS011;5753;54.402;10.220;2022-12-29T14:36:38;3.58;;;1.73;;
11394;SDS011;5753;54.402;10.220;2022-12-29T14:42:00;22.33;;;3.75;;
11394;SDS011;5753;54.402;10.220;2022-12-29T14:44:29;6.25;;;2.72;;
11394;SDS011;5753;54.402;10.220;2022-12-29T14:49:25;4.60;;;3.47;;
11394;SDS011;5753;54.402;10.220;2022-12-29T14:51:54;21.52;;;6.80;;
11394;SDS011;5753;54.402;10.220;2022-12-29T14:57:35;8.88;;;2.58;;
11394;SDS011;5753;54.402;10.220;2022-12-29T15:03:36;7.13;;;4.90;;
11394;SDS011;5753;54.402;10.220;2022-12-29T15:05:51;5.77;;;5.07;;
11394;SDS011;5753;54.402;10.220;2022-12-29T15:08:27;9.18;;;6.03;;
11394;SDS011;5753;54.402;10.220;2022-12-29T15:11:06;36.90;;;7.30;;
11394;SDS011;5753;54.402;10.220;2022-12-29T15:13:40;9.43;;;5.45;;
11394;SDS011;5753;54.402;10.220;2022-12-29T15:16:21;4.38;;;2.88;;
11394;SDS011;5753;54.402;10.220;2022-12-29T15:18:54;9.27;;;3.80;;
11394;SDS011;5753;54.402;10.220;2022-12-29T15:21:27;9.38;;;3.05;;
11394;SDS011;5753;54.402;10.220;2022-12-29T15:23:56;19.20;;;4.97;;
11394;SDS011;5753;54.402;10.220;2022-12-29T15:26:22;6.18;;;4.03;;
11394;SDS011;5753;54.402;10.220;2022-12-29T15:29:00;3.67;;;2.28;;
11394;SDS011;5753;54.402;10.220;2022-12-29T15:31:26;7.65;;;2.17;;
11394;SDS011;5753;54.402;10.220;2022-12-29T15:33:54;7.15;;;3.00;;
11394;SDS011;5753;54.402;10.220;2022-12-29T15:36:28;16.45;;;5.30;;
11394;SDS011;5753;54.402;10.220;2022-12-29T15:39:01;14.82;;;3.22;;
11394;SDS011;5753;54.402;10.220;2022-12-29T15:41:49;5.18;;;2.22;;
11394;SDS011;5753;54.402;10.220;2022-12-29T15:44:28;11.73;;;2.67;;
11394;SDS011;5753;54.402;10.220;2022-12-29T15:47:16;10.63;;;1.90;;
11394;SDS011;5753;54.402;10.220;2022-12-29T15:49:45;20.42;;;3.22;;
11394;SDS011;5753;54.402;10.220;2022-12-29T15:52:19;6.85;;;1.92;;
11394;SDS011;5753;54.402;10.220;2022-12-29T15:54:50;14.90;;;2.83;;
11394;SDS011;5753;54.402;10.220;2022-12-29T15:57:28;14.82;;;4.60;;
11394;SDS011;5753;54.402;10.220;2022-12-29T16:00:00;7.32;;;3.35;;
11394;SDS011;5753;54.402;10.220;2022-12-29T16:02:28;10.63;;;2.80;;
11394;SDS011;5753;54.402;10.220;2022-12-29T16:04:55;15.20;;;5.45;;
11394;SDS011;5753;54.402;10.220;2022-12-29T16:07:26;5.55;;;2.65;;
11394;SDS011;5753;54.402;10.220;2022-12-29T16:09:55;5.68;;;3.53;;
11394;SDS011;5753;54.402;10.220;2022-12-29T16:12:24;6.50;;;2.60;;
11394;SDS011;5753;54.402;10.220;2022-12-29T16:17:27;5.60;;;1.83;;
11394;SDS011;5753;54.402;10.220;2022-12-29T16:20:04;4.82;;;2.58;;
11394;SDS011;5753;54.402;10.220;2022-12-29T16:22:41;8.98;;;1.73;;
11394;SDS011;5753;54.402;10.220;2022-12-29T16:25:15;1.08;;;0.95;;
11394;SDS011;5753;54.402;10.220;2022-12-29T16:27:49;15.48;;;3.10;;
11394;SDS011;5753;54.402;10.220;2022-12-29T16:30:19;17.23;;;3.85;;
11394;SDS011;5753;54.402;10.220;2022-12-29T16:32:52;3.50;;;2.08;;
11394;SDS011;5753;54.402;10.220;2022-12-29T16:35:21;9.73;;;4.13;;
11394;SDS011;5753;54.402;10.220;2022-12-29T16:38:06;4.65;;;2.22;;
11394;SDS011;5753;54.402;10.220;2022-12-29T16:40:58;7.30;;;4.13;;
11394;SDS011;5753;54.402;10.220;2022-12-29T16:43:30;3.10;;;2.03;;
11394;SDS011;5753;54.402;10.220;2022-12-29T16:48:25;7.15;;;4.35;;
11394;SDS011;5753;54.402;10.220;2022-12-29T16:51:13;10.20;;;2.65;;
11394;SDS011;5753;54.402;10.220;2022-12-29T16:53:48;9.95;;;3.22;;
11394;SDS011;5753;54.402;10.220;2022-12-29T16:56:20;4.72;;;2.45;;
11394;SDS011;5753;54.402;10.220;2022-12-29T16:58:51;10.95;;;5.18;;
11394;SDS011;5753;54.402;10.220;2022-12-29T17:01:27;8.18;;;2.95;;
11394;SDS011;5753;54.402;10.220;2022-12-29T17:03:54;3.30;;;1.63;;
11394;SDS011;5753;54.402;10.220;2022-12-29T17:06:24;5.95;;;2.10;;
11394;SDS011;5753;54.402;10.220;2022-12-29T17:08:51;7.30;;;2.17;;
11394;SDS011;5753;54.402;10.220;2022-12-29T17:11:24;9.80;;;1.80;;
11394;SDS011;5753;54.402;10.220;2022-12-29T17:16:56;11.25;;;6.35;;
11394;SDS011;5753;54.402;10.220;2022-12-29T17:19:28;7.18;;;3.17;;
11394;SDS011;5753;54.402;10.220;2022-12-29T17:21:56;4.05;;;2.13;;